Claes Maersk — OZDT2 — position and weather

sailwx.info

Track history (hours):
 
Tides and Currents Weather Stations Pressure Air Temp Water Temp Dewpoint Dewpoint Depression Visibility Wind Speed Wind Dir Waves Ship Positions

Claes Maersk

Last reported at 2014-Oct-27 23:05 UTC. Time now 2014-Oct-30 18:22 UTC.
Position N 09°24' W 013°43'.

Length 190 m; draft 6.5 m.

Type: Cargo ship. MMSI: 219572000.

Date/timePositionNaut miles runAvg speedWind from/ knotsBaromVisibWave heightAir tempDewpointWater temp
2014-Oct-27 23:05N 09°24' W 013°43'5 9.7
2014-Oct-27 22:33N 09°29' W 013°44'2 1.7
2014-Oct-27 21:32N 09°31' W 013°43'0 0.0
2014-Oct-27 19:26N 09°31' W 013°43'0 0.0
2014-Oct-27 18:32N 09°31' W 013°43'0 0.0
2014-Oct-27 17:32N 09°31' W 013°43'0 0.0
2014-Oct-27 16:32N 09°31' W 013°43'0 0.0
2014-Oct-27 15:32N 09°31' W 013°43'0 0.0
2014-Oct-27 14:32N 09°31' W 013°43'0 0.0
2014-Oct-27 13:32N 09°31' W 013°43'0 0.0
2014-Oct-27 12:32N 09°31' W 013°43'0 0.0
2014-Oct-27 11:32N 09°31' W 013°43'0 0.0
2014-Oct-27 10:32N 09°31' W 013°43'0 0.0
2014-Oct-27 09:32N 09°31' W 013°43'0 0.0
2014-Oct-27 08:32N 09°31' W 013°43'0 0.0
2014-Oct-27 07:32N 09°31' W 013°43'0 0.0
2014-Oct-27 06:32N 09°31' W 013°43'0 0.0
2014-Oct-27 05:32N 09°31' W 013°43'0 0.0
2014-Oct-27 04:32N 09°31' W 013°43'0 0.0
2014-Oct-27 03:32N 09°31' W 013°43'0 0.0
2014-Oct-27 02:33N 09°31' W 013°43'4 3.8
2014-Oct-27 01:28N 09°26' W 013°43'0 0.2
2014-Oct-27 00:31N 09°27' W 013°43'5 1.8
2014-Oct-26 21:32N 09°22' W 013°46'  
Track history (hours):
 
Tides and Currents Weather Stations Pressure Air Temp Water Temp Dewpoint Dewpoint Depression Visibility Wind Speed Wind Dir Waves Ship Positions

Claes Maersk

Last reported at 2014-Oct-27 23:05 UTC. Time now 2014-Oct-30 18:22 UTC.
Position N 09°24' W 013°43'.

Length 190 m; draft 6.5 m.

Type: Cargo ship. MMSI: 219572000.

Date/timePositionNaut miles runAvg speedWind from/ knotsBaromVisibWave heightAir tempDewpointWater temp
2014-Oct-27 23:05N 09°24' W 013°43'5 9.7
2014-Oct-27 22:33N 09°29' W 013°44'2 1.7
2014-Oct-27 21:32N 09°31' W 013°43'0 0.0
2014-Oct-27 19:26N 09°31' W 013°43'0 0.0
2014-Oct-27 18:32N 09°31' W 013°43'0 0.0
2014-Oct-27 17:32N 09°31' W 013°43'0 0.0
2014-Oct-27 16:32N 09°31' W 013°43'0 0.0
2014-Oct-27 15:32N 09°31' W 013°43'0 0.0
2014-Oct-27 14:32N 09°31' W 013°43'0 0.0
2014-Oct-27 13:32N 09°31' W 013°43'0 0.0
2014-Oct-27 12:32N 09°31' W 013°43'0 0.0
2014-Oct-27 11:32N 09°31' W 013°43'0 0.0
2014-Oct-27 10:32N 09°31' W 013°43'0 0.0
2014-Oct-27 09:32N 09°31' W 013°43'0 0.0
2014-Oct-27 08:32N 09°31' W 013°43'0 0.0
2014-Oct-27 07:32N 09°31' W 013°43'0 0.0
2014-Oct-27 06:32N 09°31' W 013°43'0 0.0
2014-Oct-27 05:32N 09°31' W 013°43'0 0.0
2014-Oct-27 04:32N 09°31' W 013°43'0 0.0
2014-Oct-27 03:32N 09°31' W 013°43'0 0.0
2014-Oct-27 02:33N 09°31' W 013°43'4 3.8
2014-Oct-27 01:28N 09°26' W 013°43'0 0.2
2014-Oct-27 00:31N 09°27' W 013°43'5 1.8
2014-Oct-26 21:32N 09°22' W 013°46'  

Dump ship's entire track history